createdAt,value
2017-12-20T00:02:11.327Z,100644.20
2017-12-20T00:04:39.579Z,100640.89
2017-12-20T00:07:07.879Z,100639.38
2017-12-20T00:09:36.134Z,100644.20
2017-12-20T00:12:04.430Z,100630.59
2017-12-20T00:14:32.685Z,100631.78
2017-12-20T00:17:00.967Z,100632.31
2017-12-20T00:19:29.757Z,100627.48
2017-12-20T00:21:58.031Z,100632.36
2017-12-20T00:24:26.319Z,100623.86
2017-12-20T00:26:54.579Z,100624.44
2017-12-20T00:29:22.880Z,100622.50
2017-12-20T00:31:51.189Z,100619.70
2017-12-20T00:34:19.480Z,100614.36
2017-12-20T00:36:47.751Z,100619.95
2017-12-20T00:39:16.079Z,100614.80
2017-12-20T00:41:44.356Z,100618.36
2017-12-20T00:44:12.616Z,100626.84
2017-12-20T00:46:40.927Z,100603.92
2017-12-20T00:49:09.188Z,100609.92
2017-12-20T00:51:37.491Z,100623.42
2017-12-20T00:54:05.757Z,100619.11
2017-12-20T00:56:34.166Z,100621.98
2017-12-20T00:59:02.703Z,100614.34
2017-12-20T01:01:30.996Z,100612.25
2017-12-20T01:03:59.271Z,100613.36
2017-12-20T01:06:27.559Z,100591.67
2017-12-20T01:08:55.846Z,100598.20
2017-12-20T01:11:24.131Z,100600.54
2017-12-20T01:13:52.607Z,100592.70
2017-12-20T01:16:20.861Z,100582.53
2017-12-20T01:18:49.140Z,100580.61
2017-12-20T01:21:17.397Z,100591.35
2017-12-20T01:23:45.683Z,100597.54
2017-12-20T01:26:13.963Z,100595.16
2017-12-20T01:28:42.251Z,100594.27
2017-12-20T01:31:10.511Z,100605.29
2017-12-20T01:33:38.849Z,100599.34
2017-12-20T01:36:07.268Z,100605.17
2017-12-20T01:38:35.906Z,100607.34
2017-12-20T01:41:05.122Z,100606.53
2017-12-20T01:43:33.400Z,100604.93
2017-12-20T01:46:02.536Z,100600.09
2017-12-20T01:48:30.827Z,100599.59
2017-12-20T01:50:59.104Z,100604.47
2017-12-20T01:53:27.348Z,100605.34
2017-12-20T01:55:55.639Z,100603.45
2017-12-20T01:58:23.903Z,100604.59
2017-12-20T02:00:52.247Z,100604.51
2017-12-20T02:03:20.501Z,100606.61
2017-12-20T02:05:48.752Z,100608.20
2017-12-20T02:08:17.031Z,100613.70
2017-12-20T02:10:45.293Z,100606.98
2017-12-20T02:13:13.564Z,100597.22
2017-12-20T02:15:41.836Z,100592.16
2017-12-20T02:18:10.128Z,100589.56
2017-12-20T02:20:38.386Z,100583.14
2017-12-20T02:23:06.689Z,100583.78
2017-12-20T02:25:34.950Z,100579.55
2017-12-20T02:28:03.216Z,100573.22
2017-12-20T02:30:31.509Z,100572.20
2017-12-20T02:32:59.769Z,100575.73
2017-12-20T02:35:28.051Z,100584.41
2017-12-20T02:37:56.322Z,100572.20
2017-12-20T02:40:24.605Z,100571.45
2017-12-20T02:42:52.875Z,100570.51
2017-12-20T02:45:21.184Z,100563.48
2017-12-20T02:47:49.447Z,100560.66
2017-12-20T02:50:17.724Z,100560.30
2017-12-20T02:52:45.983Z,100556.55
2017-12-20T02:55:14.300Z,100555.37
2017-12-20T02:57:42.552Z,100552.34
2017-12-20T03:00:10.876Z,100547.62
2017-12-20T03:02:39.164Z,100548.34
2017-12-20T03:05:07.575Z,100549.54
2017-12-20T03:07:35.852Z,100555.25
2017-12-20T03:10:04.113Z,100547.20
2017-12-20T03:12:32.396Z,100553.84
2017-12-20T03:15:00.676Z,100542.58
2017-12-20T03:17:28.959Z,100550.30
2017-12-20T03:19:57.221Z,100541.72
2017-12-20T03:22:25.500Z,100536.19
2017-12-20T03:24:53.771Z,100534.46
2017-12-20T03:27:22.067Z,100530.17
2017-12-20T03:29:50.328Z,100530.34
2017-12-20T03:32:18.606Z,100529.39
2017-12-20T03:34:46.898Z,100529.16
2017-12-20T03:37:15.163Z,100526.05
2017-12-20T03:39:43.453Z,100523.92
2017-12-20T03:42:11.711Z,100520.34
2017-12-20T03:44:40.013Z,100519.59
2017-12-20T03:47:08.260Z,100519.28
2017-12-20T03:49:36.659Z,100520.20
2017-12-20T03:52:04.943Z,100530.14
2017-12-20T03:54:33.256Z,100533.84
2017-12-20T03:57:01.535Z,100536.80
2017-12-20T03:59:30.619Z,100539.56
2017-12-20T04:01:58.891Z,100539.09
2017-12-20T04:04:27.149Z,100536.48
2017-12-20T04:06:55.478Z,100540.20
2017-12-20T04:09:23.793Z,100533.20
2017-12-20T04:11:52.086Z,100528.97
2017-12-20T04:14:20.337Z,100530.76
2017-12-20T04:16:48.622Z,100539.88
2017-12-20T04:19:16.888Z,100538.08
2017-12-20T04:21:45.172Z,100544.11
2017-12-20T04:24:13.434Z,100542.39
2017-12-20T04:26:41.792Z,100548.34
2017-12-20T04:29:09.987Z,100553.89
2017-12-20T04:31:38.467Z,100546.70
2017-12-20T04:34:06.761Z,100539.39
2017-12-20T04:36:35.146Z,100541.30
2017-12-20T04:39:03.432Z,100537.48
2017-12-20T04:41:31.690Z,100540.09
2017-12-20T04:43:59.983Z,100540.47
2017-12-20T04:46:28.239Z,100540.17
2017-12-20T04:48:56.514Z,100545.11
2017-12-20T04:51:24.784Z,100539.77
2017-12-20T04:53:53.094Z,100540.64
2017-12-20T04:56:21.356Z,100539.04
2017-12-20T04:58:49.646Z,100533.00
2017-12-20T05:01:17.902Z,100531.40
2017-12-20T05:03:46.179Z,100526.14
2017-12-20T05:06:14.487Z,100524.16
2017-12-20T05:08:42.767Z,100527.48
2017-12-20T05:11:11.018Z,100538.89
2017-12-20T05:13:39.287Z,100529.00
2017-12-20T05:16:07.594Z,100536.26
2017-12-20T05:18:35.896Z,100525.76
2017-12-20T05:21:04.831Z,100515.52
2017-12-20T05:23:33.087Z,100527.95
2017-12-20T05:26:01.670Z,100526.78
2017-12-20T05:28:29.908Z,100526.91
2017-12-20T05:30:58.245Z,100525.80
2017-12-20T05:33:26.507Z,100521.94
2017-12-20T05:35:54.796Z,100516.73
2017-12-20T05:38:23.076Z,100521.40
2017-12-20T05:40:51.419Z,100513.50
2017-12-20T05:43:19.671Z,100517.66
2017-12-20T05:45:47.956Z,100527.17
2017-12-20T05:48:16.252Z,100529.84
2017-12-20T05:50:44.536Z,100528.03
2017-12-20T05:53:12.829Z,100519.53
2017-12-20T05:55:41.090Z,100525.37
2017-12-20T05:58:09.455Z,100524.74
2017-12-20T06:00:37.956Z,100532.81
2017-12-20T06:03:06.271Z,100528.73
2017-12-20T06:05:34.526Z,100529.63
2017-12-20T06:08:02.859Z,100533.70
2017-12-20T06:10:31.147Z,100540.27
2017-12-20T06:12:59.442Z,100539.38
2017-12-20T06:15:27.726Z,100544.31
2017-12-20T06:17:56.001Z,100542.30
2017-12-20T06:20:24.338Z,100536.52
2017-12-20T06:22:52.620Z,100541.70
2017-12-20T06:25:20.922Z,100549.87
2017-12-20T06:27:49.188Z,100551.97
2017-12-20T06:30:17.488Z,100561.78
2017-12-20T06:32:45.760Z,100560.14
2017-12-20T06:35:14.095Z,100558.20
2017-12-20T06:37:42.403Z,100566.78
2017-12-20T06:40:10.666Z,100567.59
2017-12-20T06:42:38.960Z,100565.90
2017-12-20T06:45:07.391Z,100566.91
2017-12-20T06:47:35.649Z,100562.32
2017-12-20T06:50:04.528Z,100556.97
2017-12-20T06:52:32.823Z,100552.60
2017-12-20T06:55:01.099Z,100561.58
2017-12-20T06:57:29.387Z,100561.45
2017-12-20T06:59:57.650Z,100571.65
2017-12-20T07:02:25.942Z,100571.12
2017-12-20T07:04:54.267Z,100546.42
2017-12-20T07:07:22.491Z,100572.61
2017-12-20T07:09:50.791Z,100576.14
2017-12-20T07:12:19.105Z,100571.83
2017-12-20T07:14:47.372Z,100576.58
2017-12-20T07:17:15.665Z,100576.90
2017-12-20T07:19:44.243Z,100574.45
2017-12-20T07:22:12.548Z,100574.25
2017-12-20T07:24:40.907Z,100571.41
2017-12-20T07:27:09.160Z,100566.69
2017-12-20T07:29:37.459Z,100567.73
2017-12-20T07:32:05.768Z,100567.55
2017-12-20T07:34:34.068Z,100570.18
2017-12-20T07:37:02.339Z,100584.41
2017-12-20T07:39:30.634Z,100571.67
2017-12-20T07:41:58.999Z,100566.39
2017-12-20T07:44:27.299Z,100567.41
2017-12-20T07:46:55.571Z,100567.59
2017-12-20T07:49:23.855Z,100566.37
2017-12-20T07:51:52.119Z,100564.06
2017-12-20T07:54:20.415Z,100569.81
2017-12-20T07:56:49.022Z,100567.27
2017-12-20T07:59:17.969Z,100569.63
2017-12-20T08:01:46.272Z,100567.09
2017-12-20T08:04:14.584Z,100571.98
2017-12-20T08:06:42.898Z,100572.80
2017-12-20T08:09:11.180Z,100577.71
2017-12-20T08:11:39.469Z,100582.92
2017-12-20T08:14:07.732Z,100587.80
2017-12-20T08:16:36.082Z,100584.55
2017-12-20T08:19:04.386Z,100593.97
2017-12-20T08:21:32.693Z,100588.75
2017-12-20T08:24:01.056Z,100593.95
2017-12-20T08:26:29.370Z,100599.91
2017-12-20T08:28:57.651Z,100605.80
2017-12-20T08:31:26.131Z,100611.95
2017-12-20T08:33:54.467Z,100613.22
2017-12-20T08:36:22.767Z,100616.28
2017-12-20T08:38:51.047Z,100617.59
2017-12-20T08:41:19.310Z,100622.27
2017-12-20T08:43:47.718Z,100612.75
2017-12-20T08:46:15.972Z,100605.13
2017-12-20T08:48:44.286Z,100616.39
2017-12-20T08:51:13.071Z,100604.17
2017-12-20T08:53:41.319Z,100613.48
2017-12-20T08:56:09.594Z,100616.55
2017-12-20T08:58:37.967Z,100615.47
2017-12-20T09:01:06.259Z,100624.02
2017-12-20T09:03:34.625Z,100626.52
2017-12-20T09:06:02.916Z,100628.71
2017-12-20T09:08:31.192Z,100624.19
2017-12-20T09:10:59.501Z,100627.63
2017-12-20T09:13:27.777Z,100635.22
2017-12-20T09:15:56.629Z,100638.16
2017-12-20T09:18:24.864Z,100644.55
2017-12-20T09:20:53.220Z,100643.64
2017-12-20T09:23:21.458Z,100637.95
2017-12-20T09:25:49.720Z,100639.48
2017-12-20T09:28:18.022Z,100641.70
2017-12-20T09:30:46.583Z,100642.59
2017-12-20T09:33:14.924Z,100648.67
2017-12-20T09:35:44.127Z,100655.62
2017-12-20T09:38:12.468Z,100657.55
2017-12-20T09:40:40.745Z,100652.20
2017-12-20T09:43:09.094Z,100638.66
2017-12-20T09:45:37.389Z,100637.23
2017-12-20T09:48:05.665Z,100644.45
2017-12-20T09:50:34.215Z,100642.12
2017-12-20T09:53:02.543Z,100647.30
2017-12-20T09:55:30.888Z,100647.61
2017-12-20T09:57:59.121Z,100640.11
2017-12-20T10:00:27.406Z,100624.31
2017-12-20T10:02:55.692Z,100644.98
2017-12-20T10:05:24.015Z,100638.56
2017-12-20T10:07:52.302Z,100645.77
2017-12-20T10:10:20.708Z,100646.41
2017-12-20T10:12:48.996Z,100636.20
2017-12-20T10:15:17.299Z,100642.39
2017-12-20T10:17:45.792Z,100639.09
2017-12-20T10:20:14.124Z,100635.75
2017-12-20T10:22:42.447Z,100636.45
2017-12-20T10:25:10.727Z,100637.09
2017-12-20T10:27:39.083Z,100633.58
2017-12-20T10:30:07.384Z,100626.19
2017-12-20T10:32:35.679Z,100640.34
2017-12-20T10:35:04.915Z,100606.88
2017-12-20T10:37:33.195Z,100644.25
2017-12-20T10:40:01.501Z,100642.85
2017-12-20T10:42:29.779Z,100641.65
2017-12-20T10:44:58.058Z,100643.06
2017-12-20T10:47:26.407Z,100639.61
2017-12-20T10:49:54.726Z,100638.93
2017-12-20T10:52:23.005Z,100634.08
2017-12-20T10:54:51.338Z,100632.25
2017-12-20T10:57:19.665Z,100638.33
2017-12-20T10:59:48.061Z,100638.30
2017-12-20T11:02:16.336Z,100634.89
2017-12-20T11:04:44.689Z,100631.04
2017-12-20T11:07:12.939Z,100628.21
2017-12-20T11:09:41.265Z,100624.67
2017-12-20T11:12:09.537Z,100624.26
2017-12-20T11:14:39.043Z,100619.91
2017-12-20T11:17:07.325Z,100623.94
2017-12-20T11:19:35.580Z,100621.00
2017-12-20T11:22:03.866Z,100616.25
2017-12-20T11:24:32.158Z,100621.61
2017-12-20T11:27:00.465Z,100617.66
2017-12-20T11:29:28.727Z,100612.61
2017-12-20T11:31:57.046Z,100604.94
2017-12-20T11:34:25.315Z,100605.66
2017-12-20T11:36:53.621Z,100599.98
2017-12-20T11:39:22.004Z,100607.14
2017-12-20T11:41:50.274Z,100596.61
2017-12-20T11:44:19.646Z,100589.15
2017-12-20T11:46:47.961Z,100589.05
2017-12-20T11:49:16.278Z,100590.56
2017-12-20T11:51:44.530Z,100600.28
2017-12-20T11:54:12.831Z,100592.38
2017-12-20T11:56:41.105Z,100511.44
2017-12-20T11:59:09.548Z,100600.98
2017-12-20T12:01:37.823Z,100609.90
2017-12-20T12:04:07.025Z,100605.84
2017-12-20T12:06:35.350Z,100605.03
2017-12-20T12:09:03.576Z,100604.84
2017-12-20T12:11:31.884Z,100606.63
2017-12-20T12:14:00.152Z,100600.89
2017-12-20T12:16:28.460Z,100608.47
2017-12-20T12:18:56.705Z,100607.46
2017-12-20T12:21:24.998Z,100590.37
2017-12-20T12:23:53.274Z,100602.81
2017-12-20T12:26:21.563Z,100602.09
2017-12-20T12:28:49.819Z,100601.60
2017-12-20T12:31:18.251Z,100598.95
2017-12-20T12:33:46.556Z,100592.87
2017-12-20T12:36:14.817Z,100592.70
2017-12-20T12:38:43.953Z,100591.37
2017-12-20T12:41:12.233Z,100592.57
2017-12-20T12:43:40.969Z,100588.85
2017-12-20T12:46:09.688Z,100592.39
2017-12-20T12:48:37.981Z,100602.70
2017-12-20T12:51:06.327Z,100599.16
2017-12-20T12:53:34.761Z,100593.68
2017-12-20T12:56:03.037Z,100591.54
2017-12-20T12:58:31.339Z,100582.44
2017-12-20T13:00:59.615Z,100587.41
2017-12-20T13:03:27.942Z,100590.64
2017-12-20T13:05:56.389Z,100601.48
2017-12-20T13:08:24.654Z,100589.64
2017-12-20T13:10:52.971Z,100582.26
2017-12-20T13:13:21.215Z,100593.89
2017-12-20T13:15:49.527Z,100594.72
2017-12-20T13:18:17.803Z,100594.91
2017-12-20T13:20:46.206Z,100588.30
2017-12-20T13:23:14.490Z,100591.66
2017-12-20T13:25:43.108Z,100595.59
2017-12-20T13:28:11.367Z,100592.45
2017-12-20T13:30:39.759Z,100595.89
2017-12-20T13:33:08.042Z,100595.48
2017-12-20T13:35:36.313Z,100601.36
2017-12-20T13:38:05.537Z,100597.65
2017-12-20T13:40:33.819Z,100604.33
2017-12-20T13:43:02.127Z,100605.62
2017-12-20T13:45:31.628Z,100602.39
2017-12-20T13:47:59.923Z,100591.36
2017-12-20T13:50:28.261Z,100607.15
2017-12-20T13:52:56.538Z,100616.55
2017-12-20T13:55:24.825Z,100587.84
2017-12-20T13:57:53.181Z,100620.41
2017-12-20T14:00:21.465Z,100617.78
2017-12-20T14:02:50.024Z,100617.16
2017-12-20T14:05:18.329Z,100609.36
2017-12-20T14:07:46.592Z,100621.42
2017-12-20T14:10:14.875Z,100598.95
2017-12-20T14:12:43.176Z,100601.49
2017-12-20T14:15:11.527Z,100604.41
2017-12-20T14:17:39.805Z,100606.76
2017-12-20T14:20:08.088Z,100608.89
2017-12-20T14:22:36.431Z,100609.28
2017-12-20T14:25:05.128Z,100592.28
2017-12-20T14:27:33.439Z,100604.30
2017-12-20T14:30:01.745Z,100606.24
2017-12-20T14:32:30.035Z,100605.02
2017-12-20T14:34:58.314Z,100609.55
2017-12-20T14:37:26.657Z,100594.80
2017-12-20T14:39:54.908Z,100609.67
2017-12-20T14:42:23.183Z,100609.66
2017-12-20T14:44:51.476Z,100623.12
2017-12-20T14:47:19.775Z,100616.95
2017-12-20T14:49:48.083Z,100619.80
2017-12-20T14:52:16.463Z,100620.31
2017-12-20T14:54:44.731Z,100619.19
2017-12-20T14:57:13.026Z,100618.77
2017-12-20T14:59:41.335Z,100621.22
2017-12-20T15:02:09.817Z,100627.48
2017-12-20T15:04:38.351Z,100625.37
2017-12-20T15:07:06.701Z,100622.13
2017-12-20T15:09:35.021Z,100623.25
2017-12-20T15:12:03.309Z,100624.97
2017-12-20T15:14:31.595Z,100649.74
2017-12-20T15:16:59.864Z,100646.11
2017-12-20T15:19:28.152Z,100648.66
2017-12-20T15:21:56.457Z,100645.11
2017-12-20T15:24:24.715Z,100627.38
2017-12-20T15:26:52.983Z,100643.97
2017-12-20T15:29:21.326Z,100639.43
2017-12-20T15:31:49.568Z,100638.33
2017-12-20T15:34:18.066Z,100641.25
2017-12-20T15:36:46.297Z,100640.16
2017-12-20T15:39:14.767Z,100632.84
2017-12-20T15:41:43.039Z,100639.20
2017-12-20T15:44:11.382Z,100632.84
2017-12-20T15:46:39.658Z,100638.93
2017-12-20T15:49:07.948Z,100657.34
2017-12-20T15:51:36.277Z,100652.78
2017-12-20T15:54:04.571Z,100664.73
2017-12-20T15:56:32.863Z,100659.56
2017-12-20T15:59:01.455Z,100670.91
2017-12-20T16:01:29.747Z,100668.89
2017-12-20T16:03:58.714Z,100670.41
2017-12-20T16:06:26.977Z,100668.47
2017-12-20T16:08:55.264Z,100673.95
2017-12-20T16:11:23.538Z,100661.80
2017-12-20T16:13:51.832Z,100667.13
2017-12-20T16:16:20.270Z,100668.16
2017-12-20T16:18:48.847Z,100665.83
2017-12-20T16:21:17.642Z,100671.42
2017-12-20T16:23:46.169Z,100671.72
2017-12-20T16:26:14.518Z,100651.16
2017-12-20T16:28:42.808Z,100667.27
2017-12-20T16:31:11.121Z,100671.63
2017-12-20T16:33:39.416Z,100677.08
2017-12-20T16:36:07.740Z,100679.72
2017-12-20T16:38:36.101Z,100680.03
2017-12-20T16:41:05.071Z,100675.05
2017-12-20T16:43:33.481Z,100692.06
2017-12-20T16:46:01.735Z,100689.83
2017-12-20T16:48:30.029Z,100693.98
2017-12-20T16:50:58.347Z,100695.71
2017-12-20T16:53:38.416Z,100694.09
2017-12-20T16:56:06.773Z,100704.11
2017-12-20T16:58:35.084Z,100691.97
2017-12-20T17:01:03.356Z,100686.11
2017-12-20T17:03:32.375Z,100685.48
2017-12-20T17:06:00.669Z,100686.59
2017-12-20T17:08:28.988Z,100691.75
2017-12-20T17:10:57.239Z,100690.45
2017-12-20T17:13:25.807Z,100693.17
2017-12-20T17:15:54.152Z,100690.06
2017-12-20T17:18:22.509Z,100684.56
2017-12-20T17:20:50.810Z,100686.70
2017-12-20T17:23:19.075Z,100660.18
2017-12-20T17:25:47.379Z,100684.87
2017-12-20T17:28:15.672Z,100687.11
2017-12-20T17:30:43.983Z,100688.11
2017-12-20T17:33:12.249Z,100697.73
2017-12-20T17:35:40.545Z,100697.11
2017-12-20T17:38:09.228Z,100690.43
2017-12-20T17:40:37.530Z,100680.01
2017-12-20T17:43:05.805Z,100688.41
2017-12-20T17:45:34.115Z,100693.53
2017-12-20T17:48:02.463Z,100696.08
2017-12-20T17:50:30.828Z,100700.63
2017-12-20T17:52:59.767Z,100703.95
2017-12-20T17:55:28.104Z,100709.84
2017-12-20T17:57:56.468Z,100716.50
2017-12-20T18:00:24.799Z,100713.09
2017-12-20T18:02:53.112Z,100717.64
2017-12-20T18:05:21.388Z,100715.74
2017-12-20T18:07:49.679Z,100717.88
2017-12-20T18:10:17.969Z,100724.67
2017-12-20T18:12:46.335Z,100725.88
2017-12-20T18:15:14.609Z,100720.21
2017-12-20T18:17:42.950Z,100712.73
2017-12-20T18:20:11.239Z,100710.39
2017-12-20T18:22:39.540Z,100712.63
2017-12-20T18:25:07.907Z,100714.94
2017-12-20T18:27:36.149Z,100685.77
2017-12-20T18:30:04.924Z,100712.52
2017-12-20T18:32:33.188Z,100707.64
2017-12-20T18:35:01.469Z,100703.99
2017-12-20T18:37:29.769Z,100704.63
2017-12-20T18:39:58.085Z,100708.55
2017-12-20T18:42:26.369Z,100709.27
2017-12-20T18:44:54.648Z,100721.63
2017-12-20T18:47:23.004Z,100720.72
2017-12-20T18:49:51.272Z,100718.50
2017-12-20T18:52:19.584Z,100726.19
2017-12-20T18:54:47.884Z,100729.94
2017-12-20T18:57:16.174Z,100727.59
2017-12-20T18:59:44.760Z,100722.84
2017-12-20T19:02:13.074Z,100737.23
2017-12-20T19:04:41.387Z,100735.31
2017-12-20T19:07:09.723Z,100738.86
2017-12-20T19:09:38.024Z,100743.82
2017-12-20T19:12:06.328Z,100752.61
2017-12-20T19:14:34.818Z,100750.91
2017-12-20T19:17:03.164Z,100745.94
2017-12-20T19:19:31.423Z,100740.28
2017-12-20T19:21:59.748Z,100739.36
2017-12-20T19:24:28.222Z,100727.91
2017-12-20T19:26:56.595Z,100733.16
2017-12-20T19:29:26.319Z,100732.27
2017-12-20T19:31:54.642Z,100735.19
2017-12-20T19:34:22.921Z,100731.64
2017-12-20T19:36:51.200Z,100723.55
2017-12-20T19:39:20.228Z,100730.52
2017-12-20T19:41:48.508Z,100737.89
2017-12-20T19:44:16.851Z,100740.44
2017-12-20T19:46:45.205Z,100741.16
2017-12-20T19:49:13.487Z,100739.46
2017-12-20T19:51:41.812Z,100732.78
2017-12-20T19:54:10.146Z,100732.47
2017-12-20T19:56:38.400Z,100727.80
2017-12-20T19:59:06.912Z,100728.02
2017-12-20T20:01:35.180Z,100729.84
2017-12-20T20:04:03.466Z,100725.58
2017-12-20T20:06:31.834Z,100729.92
2017-12-20T20:09:00.138Z,100725.97
2017-12-20T20:11:28.431Z,100723.55
2017-12-20T20:13:56.757Z,100710.91
2017-12-20T20:16:25.042Z,100729.53
2017-12-20T20:18:53.346Z,100713.12
2017-12-20T20:21:21.686Z,100722.95
2017-12-20T20:23:49.993Z,100719.09
2017-12-20T20:26:18.253Z,100729.31
2017-12-20T20:28:46.553Z,100716.06
2017-12-20T20:31:14.851Z,100719.81
2017-12-20T20:33:43.153Z,100704.22
2017-12-20T20:36:11.438Z,100713.95
2017-12-20T20:38:39.745Z,100703.80
2017-12-20T20:41:08.063Z,100704.11
2017-12-20T20:43:36.359Z,100715.25
2017-12-20T20:46:05.037Z,100693.19
2017-12-20T20:48:33.336Z,100698.74
2017-12-20T20:51:01.602Z,100707.66
2017-12-20T20:53:30.212Z,100710.71
2017-12-20T20:55:58.602Z,100711.60
2017-12-20T20:58:26.902Z,100724.97
2017-12-20T21:00:55.218Z,100724.77
2017-12-20T21:03:23.485Z,100732.08
2017-12-20T21:05:51.815Z,100726.80
2017-12-20T21:08:20.164Z,100726.70
2017-12-20T21:10:48.487Z,100733.99
2017-12-20T21:13:16.777Z,100731.63
2017-12-20T21:15:45.106Z,100728.28
2017-12-20T21:18:13.444Z,100733.24
2017-12-20T21:20:41.772Z,100734.68
2017-12-20T21:23:10.080Z,100733.06
2017-12-20T21:25:38.365Z,100739.24
2017-12-20T21:28:06.648Z,100747.02
2017-12-20T21:30:34.980Z,100745.69
2017-12-20T21:33:03.319Z,100766.77
2017-12-20T21:35:31.596Z,100767.41
2017-12-20T21:37:59.900Z,100774.12
2017-12-20T21:40:28.147Z,100782.05
2017-12-20T21:42:56.451Z,100759.80
2017-12-20T21:45:24.723Z,100756.67
2017-12-20T21:47:53.039Z,100755.02
2017-12-20T21:50:21.309Z,100759.40
2017-12-20T21:52:49.615Z,100762.65
2017-12-20T21:55:17.896Z,100756.17
2017-12-20T21:57:46.172Z,100753.23
2017-12-20T22:00:14.532Z,100746.31
2017-12-20T22:02:42.804Z,100739.59
2017-12-20T22:05:11.101Z,100732.31
2017-12-20T22:07:39.405Z,100735.86
2017-12-20T22:10:07.751Z,100735.47
2017-12-20T22:12:36.012Z,100743.67
2017-12-20T22:15:05.009Z,100752.20
2017-12-20T22:17:33.295Z,100748.16
2017-12-20T22:20:01.594Z,100756.65
2017-12-20T22:22:29.881Z,100752.31
2017-12-20T22:24:58.178Z,100758.41
2017-12-20T22:27:26.451Z,100760.52
2017-12-20T22:29:54.740Z,100758.48
2017-12-20T22:32:23.037Z,100737.21
2017-12-20T22:34:51.327Z,100752.71
2017-12-20T22:37:19.620Z,100752.50
2017-12-20T22:39:47.932Z,100759.09
2017-12-20T22:42:16.215Z,100758.38
2017-12-20T22:44:44.483Z,100767.19
2017-12-20T22:47:12.786Z,100758.79
2017-12-20T22:49:41.068Z,100760.72
2017-12-20T22:52:09.356Z,100765.25
2017-12-20T22:54:37.626Z,100768.80
2017-12-20T22:57:05.920Z,100773.66
2017-12-20T22:59:34.215Z,100766.89
2017-12-20T23:02:03.011Z,100770.02
2017-12-20T23:04:31.383Z,100771.34
2017-12-20T23:06:59.660Z,100770.53
2017-12-20T23:09:27.946Z,100775.80
2017-12-20T23:11:56.223Z,100767.66
2017-12-20T23:14:24.579Z,100792.78
2017-12-20T23:16:52.833Z,100795.85
2017-12-20T23:19:21.107Z,100798.90
2017-12-20T23:21:49.409Z,100800.20
2017-12-20T23:24:17.686Z,100801.73
2017-12-20T23:26:45.967Z,100805.18
2017-12-20T23:29:14.286Z,100786.14
2017-12-20T23:31:42.591Z,100798.59
2017-12-20T23:34:10.846Z,100800.30
2017-12-20T23:36:39.141Z,100783.47
2017-12-20T23:39:07.415Z,100787.53
2017-12-20T23:41:35.723Z,100781.34
2017-12-20T23:44:03.980Z,100786.41
2017-12-20T23:46:32.276Z,100788.34
2017-12-20T23:49:00.601Z,100782.61
2017-12-20T23:51:28.928Z,100776.58
2017-12-20T23:53:57.193Z,100761.39
2017-12-20T23:56:25.449Z,100759.15
2017-12-20T23:58:53.754Z,100753.73
